Time;durP1;ratioP1;P1;durP2;ratioP2;P2;SDS_P1;SDS_P2;PMS_P1;PMS_P2;Temp;Humidity;BMP_temperature;BMP_pressure;BME280_temperature;BME280_humidity;BME280_pressure;Samples;Min_cycle;Max_cycle;Signal;HPM_P1;HPM_P2
2023/12/03 00:02:25;;;;;;;11.40;4.90;;;;;;;5.79;71.91;101939.88;5029078;28;20041;-47
2023/12/03 00:04:52;;;;;;;10.90;4.47;;;;;;;5.72;72.39;101943.84;5029288;28;20037;-45
2023/12/03 00:07:18;;;;;;;9.30;4.55;;;;;;;5.62;71.80;101951.06;5029159;28;20525;-50
2023/12/03 00:09:46;;;;;;;9.13;4.50;;;;;;;5.56;72.28;101951.63;5029917;28;20136;-47
2023/12/03 00:12:12;;;;;;;8.55;4.30;;;;;;;5.60;72.57;101955.28;5029126;28;20037;-45
2023/12/03 00:14:37;;;;;;;7.05;3.58;;;;;;;5.85;70.07;101949.66;5029280;28;20026;-50
2023/12/03 00:17:03;;;;;;;9.40;4.22;;;;;;;5.85;69.77;101949.66;5029405;28;20025;-48
2023/12/03 00:19:28;;;;;;;7.88;3.20;;;;;;;5.81;70.10;101951.16;5029414;28;20041;-47
2023/12/03 00:21:54;;;;;;;6.57;3.35;;;;;;;5.72;70.20;101950.72;5030810;28;20037;-44
2023/12/03 00:24:20;;;;;;;9.07;3.63;;;;;;;5.83;70.14;101946.97;5029917;28;20407;-44
2023/12/03 00:26:45;;;;;;;8.40;4.25;;;;;;;5.84;70.25;101956.50;5030278;28;20496;-46
2023/12/03 00:29:11;;;;;;;9.45;4.53;;;;;;;5.89;69.76;101952.47;5029239;28;20389;-44
2023/12/03 00:31:36;;;;;;;11.25;4.80;;;;;;;5.95;69.34;101946.72;5029353;28;20034;-50
2023/12/03 00:34:03;;;;;;;10.63;5.32;;;;;;;5.97;69.60;101950.28;5031680;28;20696;-46
2023/12/03 00:36:28;;;;;;;13.25;5.75;;;;;;;6.04;69.46;101947.16;5032550;28;20518;-45
2023/12/03 00:38:54;;;;;;;18.50;8.25;;;;;;;5.97;70.12;101951.16;5033027;28;20037;-46
2023/12/03 00:41:19;;;;;;;20.48;8.30;;;;;;;6.02;70.40;101948.78;5032492;28;20116;-47
2023/12/03 00:43:44;;;;;;;18.83;8.85;;;;;;;6.04;70.08;101948.03;5033438;28;20451;-42
2023/12/03 00:46:10;;;;;;;21.70;9.40;;;;;;;6.07;70.16;101949.91;5032971;28;20446;-44
2023/12/03 00:48:35;;;;;;;27.13;10.50;;;;;;;6.04;69.82;101950.63;5033105;28;20037;-47
2023/12/03 00:51:00;;;;;;;25.20;10.15;;;;;;;6.05;69.54;101955.00;5032992;28;20076;-42
2023/12/03 00:53:26;;;;;;;23.20;10.95;;;;;;;6.02;69.44;101957.44;5032709;28;20103;-47
2023/12/03 00:55:52;;;;;;;27.67;11.27;;;;;;;5.92;69.58;101952.63;5032745;28;20129;-48
2023/12/03 00:58:18;;;;;;;27.50;12.35;;;;;;;5.94;69.66;101961.34;5033588;28;20056;-50
2023/12/03 01:00:43;;;;;;;32.47;14.05;;;;;;;5.75;70.17;101958.63;5034580;28;20512;-43
2023/12/03 01:03:08;;;;;;;30.77;13.82;;;;;;;5.78;69.85;101957.91;5032971;28;20041;-44
2023/12/03 01:05:34;;;;;;;31.25;13.45;;;;;;;5.80;69.17;101957.16;5034085;28;20034;-45
2023/12/03 01:07:59;;;;;;;31.50;14.00;;;;;;;5.72;69.32;101954.22;5031493;28;20048;-46
2023/12/03 01:10:24;;;;;;;37.03;14.60;;;;;;;5.75;69.03;101956.03;5031757;28;20041;-47
2023/12/03 01:12:50;;;;;;;34.10;14.52;;;;;;;5.70;69.24;101950.66;5032204;28;20512;-48
2023/12/03 01:15:15;;;;;;;32.35;14.30;;;;;;;5.75;69.35;101962.91;5031493;28;20623;-46
2023/12/03 01:17:41;;;;;;;34.92;14.27;;;;;;;5.73;69.69;101955.09;5031738;28;20045;-45
2023/12/03 01:20:07;;;;;;;33.88;14.45;;;;;;;5.79;70.04;101955.41;5032189;28;20037;-44
2023/12/03 01:22:33;;;;;;;36.47;15.23;;;;;;;5.84;69.90;101968.56;5031527;28;20491;-45
2023/12/03 01:24:58;;;;;;;35.55;14.77;;;;;;;5.83;69.50;101962.50;5030687;28;20040;-45
2023/12/03 01:27:23;;;;;;;30.63;13.63;;;;;;;5.83;69.33;101971.97;5031358;28;20111;-46
2023/12/03 01:29:49;;;;;;;33.90;14.13;;;;;;;5.81;69.71;101969.28;5032174;28;20454;-44
2023/12/03 01:32:14;;;;;;;34.15;14.80;;;;;;;5.82;69.73;101965.00;5031851;28;20041;-44
2023/12/03 01:34:39;;;;;;;33.05;14.20;;;;;;;5.83;69.69;101970.25;5031974;28;20033;-45
2023/12/03 01:37:05;;;;;;;34.55;14.88;;;;;;;5.83;69.99;101971.97;5032087;28;20086;-45
2023/12/03 01:39:30;;;;;;;35.70;15.18;;;;;;;5.83;69.90;101961.59;5031348;28;20029;-44
2023/12/03 01:41:56;;;;;;;35.08;14.48;;;;;;;5.83;69.70;101975.44;5031565;28;20048;-46
2023/12/03 01:44:21;;;;;;;34.80;15.30;;;;;;;5.74;69.54;101974.97;5030530;28;20034;-47
2023/12/03 01:46:49;;;;;;;38.35;16.40;;;;;;;5.69;69.65;101979.91;5031322;28;20064;-44
2023/12/03 01:49:15;;;;;;;37.15;15.48;;;;;;;5.64;70.11;101988.25;5031011;28;20041;-45
2023/12/03 01:51:41;;;;;;;38.53;16.70;;;;;;;5.60;70.52;101982.03;5031622;28;20022;-44
2023/12/03 01:54:06;;;;;;;38.78;16.23;;;;;;;5.63;70.14;101995.13;5031861;28;20404;-45
2023/12/03 01:56:32;;;;;;;37.25;17.02;;;;;;;5.34;72.74;102004.78;5031064;28;20395;-45
2023/12/03 01:58:58;;;;;;;38.45;17.77;;;;;;;5.21;74.44;102003.25;5030417;28;20037;-45
2023/12/03 02:01:23;;;;;;;44.67;17.88;;;;;;;5.58;73.05;102000.88;5030828;28;20033;-44
2023/12/03 02:03:49;;;;;;;40.15;18.02;;;;;;;5.66;73.53;102000.47;5031238;28;20033;-44
2023/12/03 02:06:15;;;;;;;41.97;17.85;;;;;;;5.73;72.03;101999.09;5031637;28;20030;-45
2023/12/03 02:08:40;;;;;;;38.92;17.30;;;;;;;6.00;71.01;101997.00;5032004;28;20038;-47
2023/12/03 02:11:07;;;;;;;39.95;17.38;;;;;;;5.99;70.67;101997.81;5031368;28;20041;-44
2023/12/03 02:13:34;;;;;;;39.60;18.10;;;;;;;5.99;70.71;101990.94;5030724;28;20021;-46
2023/12/03 02:15:59;;;;;;;38.63;17.50;;;;;;;5.98;70.55;101988.25;5031325;28;20083;-45
2023/12/03 02:18:26;;;;;;;38.20;17.70;;;;;;;5.99;70.56;101987.44;5030638;28;20046;-48
2023/12/03 02:20:52;;;;;;;36.60;18.02;;;;;;;6.03;69.99;101989.41;5029514;28;20116;-45
2023/12/03 02:23:19;;;;;;;35.95;17.50;;;;;;;6.03;70.00;101986.81;5028726;28;20092;-45
2023/12/03 02:25:44;;;;;;;39.42;18.75;;;;;;;6.01;70.04;101991.03;5030935;28;20064;-45
2023/12/03 02:28:09;;;;;;;39.60;19.65;;;;;;;5.97;70.26;101987.41;5031140;28;20041;-46
2023/12/03 02:30:35;;;;;;;36.85;18.58;;;;;;;6.03;70.17;101992.88;5030256;28;20115;-46
2023/12/03 02:33:00;;;;;;;38.88;19.23;;;;;;;5.97;70.07;101990.00;5030888;28;20033;-44
2023/12/03 02:35:26;;;;;;;42.35;19.88;;;;;;;6.03;69.93;101990.28;5030186;28;20044;-44
2023/12/03 02:37:51;;;;;;;42.85;21.17;;;;;;;5.99;70.26;101992.63;5030924;28;20034;-45
2023/12/03 02:40:17;;;;;;;40.58;20.30;;;;;;;5.94;70.03;101997.59;5029794;28;20533;-46
2023/12/03 02:42:42;;;;;;;41.78;20.40;;;;;;;5.78;70.31;101987.25;5030392;28;20103;-46
2023/12/03 02:45:08;;;;;;;42.83;21.92;;;;;;;5.78;70.13;101989.84;5029256;28;20137;-44
2023/12/03 02:47:34;;;;;;;43.45;22.27;;;;;;;5.73;69.73;101994.78;5030199;28;20034;-43
2023/12/03 02:50:00;;;;;;;43.63;22.77;;;;;;;5.59;69.86;101988.03;5030258;28;20614;-46
2023/12/03 02:52:25;;;;;;;46.03;22.77;;;;;;;5.47;69.51;101989.09;5030058;28;20550;-44
2023/12/03 02:54:50;;;;;;;44.20;23.10;;;;;;;5.34;70.17;101997.03;5029285;28;20037;-45
2023/12/03 02:57:16;;;;;;;47.97;22.38;;;;;;;5.36;69.93;101993.72;5029840;28;20044;-43
2023/12/03 02:59:41;;;;;;;45.63;23.23;;;;;;;5.27;69.34;101991.53;5030614;28;20041;-44
2023/12/03 03:02:06;;;;;;;45.35;22.83;;;;;;;5.19;69.93;101990.22;5031049;28;20033;-44
2023/12/03 03:04:32;;;;;;;44.70;22.10;;;;;;;5.22;69.74;101993.00;5030158;28;20725;-45
2023/12/03 03:06:57;;;;;;;47.28;23.08;;;;;;;5.15;70.02;101988.31;5030518;28;20395;-48
2023/12/03 03:09:22;;;;;;;45.25;22.98;;;;;;;5.13;69.56;101989.00;5029934;28;20120;-45
2023/12/03 03:11:48;;;;;;;44.85;23.00;;;;;;;4.93;70.14;101984.50;5030627;28;20491;-47
2023/12/03 03:14:13;;;;;;;42.75;22.90;;;;;;;5.02;70.25;101987.56;5030143;28;20091;-49
2023/12/03 03:16:38;;;;;;;44.72;23.40;;;;;;;5.00;69.84;101986.63;5029675;28;20075;-45
2023/12/03 03:19:07;;;;;;;48.50;23.88;;;;;;;4.80;70.74;101985.53;5031154;28;20496;-45
2023/12/03 03:21:38;;;;;;;44.75;23.38;;;;;;;5.01;69.70;101978.03;5030018;28;20369;-44
2023/12/03 03:24:03;;;;;;;46.30;23.15;;;;;;;4.92;69.64;101977.56;5029772;28;20040;-47
2023/12/03 03:26:29;;;;;;;48.60;23.15;;;;;;;4.86;69.97;101980.69;5029996;28;20037;-45
2023/12/03 03:28:54;;;;;;;45.60;22.77;;;;;;;4.79;70.06;101978.59;5030497;28;20104;-47
2023/12/03 03:31:19;;;;;;;48.70;23.10;;;;;;;4.81;69.83;101976.97;5029947;28;20029;-44
2023/12/03 03:33:45;;;;;;;49.50;23.65;;;;;;;4.69;70.19;101981.47;5029688;28;20040;-47
2023/12/03 03:36:13;;;;;;;51.55;24.17;;;;;;;4.66;70.64;101979.59;5030192;28;20033;-49
2023/12/03 03:38:39;;;;;;;50.03;24.08;;;;;;;4.76;70.17;101984.47;5029748;28;20098;-50
2023/12/03 03:41:05;;;;;;;48.50;23.83;;;;;;;4.74;70.25;101987.78;5029968;28;20033;-45
2023/12/03 03:43:30;;;;;;;48.67;23.10;;;;;;;4.75;69.96;101984.41;5029444;28;20037;-47
2023/12/03 03:45:57;;;;;;;48.30;22.25;;;;;;;4.77;69.28;101987.94;5029669;28;20037;-44
2023/12/03 03:48:22;;;;;;;49.05;23.63;;;;;;;4.63;70.21;101991.47;5029881;28;20041;-44
2023/12/03 03:50:47;;;;;;;46.00;21.98;;;;;;;4.72;69.72;101990.28;5029786;28;20048;-43
2023/12/03 03:53:13;;;;;;;50.08;22.65;;;;;;;4.67;69.25;101993.41;5029336;28;20041;-49
2023/12/03 03:55:38;;;;;;;50.97;23.27;;;;;;;4.56;70.00;102003.16;5029877;28;20041;-45
2023/12/03 03:58:03;;;;;;;47.67;22.73;;;;;;;4.53;70.67;102000.41;5028781;28;20037;-44
2023/12/03 04:00:29;;;;;;;52.63;23.90;;;;;;;4.58;70.47;102001.53;5028120;28;20042;-45
2023/12/03 04:02:54;;;;;;;48.92;22.02;;;;;;;4.61;70.10;101999.13;5030338;28;20037;-44
2023/12/03 04:05:19;;;;;;;51.35;23.63;;;;;;;4.51;70.52;102009.78;5029465;28;20124;-45
2023/12/03 04:07:45;;;;;;;48.17;22.38;;;;;;;4.57;69.83;102016.97;5030557;28;20073;-46
2023/12/03 04:10:10;;;;;;;54.95;23.33;;;;;;;4.55;70.20;102006.53;5034342;28;20045;-44
2023/12/03 04:12:36;;;;;;;50.38;22.33;;;;;;;4.66;68.72;102004.53;5033773;28;20124;-46
2023/12/03 04:15:01;;;;;;;50.72;22.60;;;;;;;4.61;69.15;102003.41;5034084;28;20046;-43
2023/12/03 04:17:26;;;;;;;49.60;22.73;;;;;;;4.61;69.57;102004.31;5034935;28;20064;-45
2023/12/03 04:19:51;;;;;;;46.85;22.10;;;;;;;4.46;70.13;102008.59;5034124;28;20091;-46
2023/12/03 04:22:17;;;;;;;48.45;22.35;;;;;;;4.59;69.51;102012.75;5033279;28;20042;-45
2023/12/03 04:24:46;;;;;;;51.78;22.98;;;;;;;4.51;69.85;102008.88;5033234;28;20033;-45
2023/12/03 04:27:11;;;;;;;56.83;23.35;;;;;;;4.57;69.84;102010.13;5033021;28;20037;-43
2023/12/03 04:29:36;;;;;;;52.47;22.15;;;;;;;4.59;69.69;102012.75;5032555;28;20546;-49
2023/12/03 04:32:02;;;;;;;50.63;22.08;;;;;;;4.54;69.50;102007.34;5033209;28;20041;-45
2023/12/03 04:34:27;;;;;;;53.22;22.27;;;;;;;4.59;69.13;102005.00;5032519;28;20041;-44
2023/12/03 04:36:53;;;;;;;51.72;21.15;;;;;;;4.59;69.39;102007.59;5032777;28;20107;-49
2023/12/03 04:39:18;;;;;;;51.00;22.25;;;;;;;4.55;69.19;101998.81;5032530;28;20033;-45
2023/12/03 04:41:43;;;;;;;51.15;20.90;;;;;;;4.59;68.63;101999.84;5033102;28;20167;-46
2023/12/03 04:44:08;;;;;;;53.38;22.10;;;;;;;4.60;68.77;102004.22;5032905;28;20075;-45
2023/12/03 04:46:34;;;;;;;53.58;21.35;;;;;;;4.53;69.41;102005.56;5032584;28;20117;-45
2023/12/03 04:49:00;;;;;;;51.97;21.65;;;;;;;4.56;69.22;102010.03;5031756;28;20136;-45
2023/12/03 04:51:25;;;;;;;49.08;22.15;;;;;;;4.56;69.00;102004.84;5032158;28;20038;-48
2023/12/03 04:53:50;;;;;;;50.95;21.70;;;;;;;4.44;68.82;102002.47;5032938;28;20049;-46
2023/12/03 04:56:16;;;;;;;51.25;21.15;;;;;;;4.46;69.46;102006.91;5032129;28;20090;-46
2023/12/03 04:58:41;;;;;;;49.83;20.58;;;;;;;4.47;68.92;102008.69;5032626;28;20056;-44
2023/12/03 05:01:07;;;;;;;54.63;21.48;;;;;;;4.44;69.15;102010.22;5032672;28;20672;-45
2023/12/03 05:03:32;;;;;;;48.92;20.50;;;;;;;4.42;69.59;102011.81;5030728;28;20025;-46
2023/12/03 05:05:58;;;;;;;48.28;20.77;;;;;;;4.39;69.22;102004.78;5032225;28;20507;-43
2023/12/03 05:08:23;;;;;;;49.08;21.23;;;;;;;4.45;69.07;102010.28;5030734;28;20037;-45
2023/12/03 05:10:48;;;;;;;51.30;21.38;;;;;;;4.41;68.88;102007.47;5032172;28;20046;-45
2023/12/03 05:13:16;;;;;;;50.42;20.88;;;;;;;4.38;68.97;102000.44;5031974;28;20045;-45
2023/12/03 05:15:42;;;;;;;55.05;21.10;;;;;;;4.35;69.14;102008.00;5032472;28;20116;-46
2023/12/03 05:18:07;;;;;;;54.85;21.05;;;;;;;4.33;69.79;101995.84;5032138;28;20630;-44
2023/12/03 05:20:33;;;;;;;51.28;20.70;;;;;;;4.41;69.22;101997.13;5030198;28;20441;-47
2023/12/03 05:22:58;;;;;;;50.03;21.33;;;;;;;4.35;69.70;101997.69;5032370;28;20132;-44
2023/12/03 05:25:23;;;;;;;50.65;21.13;;;;;;;4.36;69.48;101991.72;5032054;28;20037;-44
2023/12/03 05:27:49;;;;;;;50.85;21.02;;;;;;;4.27;70.41;101993.78;5031688;28;20052;-46
2023/12/03 05:30:15;;;;;;;55.60;21.98;;;;;;;4.33;69.70;101994.13;5030083;28;20144;-45
2023/12/03 05:32:41;;;;;;;52.83;20.67;;;;;;;4.30;70.21;101993.97;5031704;28;20026;-44
2023/12/03 05:35:06;;;;;;;51.55;21.63;;;;;;;4.37;69.41;102001.25;5031719;28;20366;-45
2023/12/03 05:37:32;;;;;;;53.38;21.67;;;;;;;4.32;69.98;102010.44;5031361;28;20045;-46
2023/12/03 05:39:57;;;;;;;53.33;21.40;;;;;;;4.36;69.52;102008.91;5031571;28;20026;-45
2023/12/03 05:42:22;;;;;;;54.08;21.75;;;;;;;4.37;68.81;102011.56;5031646;28;20744;-46
2023/12/03 05:44:48;;;;;;;49.30;21.25;;;;;;;4.35;68.80;102020.91;5031875;28;20053;-48
2023/12/03 05:47:13;;;;;;;56.38;22.00;;;;;;;4.20;70.65;102014.91;5030956;28;20037;-48
2023/12/03 05:49:39;;;;;;;56.40;22.67;;;;;;;4.18;69.99;102018.19;5031106;28;20086;-48
2023/12/03 05:52:04;;;;;;;56.22;22.33;;;;;;;4.28;70.08;102023.94;5031508;28;20063;-46
2023/12/03 05:54:30;;;;;;;57.75;22.92;;;;;;;4.25;69.81;102022.91;5031168;28;20045;-46
2023/12/03 05:56:55;;;;;;;58.88;22.80;;;;;;;4.20;70.46;102025.22;5031481;28;20041;-44
2023/12/03 05:59:22;;;;;;;56.33;22.92;;;;;;;4.28;70.16;102028.22;5030764;28;20030;-46
2023/12/03 06:01:48;;;;;;;57.53;22.48;;;;;;;4.37;69.28;102021.00;5031331;28;20041;-46
2023/12/03 06:04:13;;;;;;;61.50;22.23;;;;;;;4.27;68.81;102021.31;5030145;28;20500;-47
2023/12/03 06:06:39;;;;;;;64.30;23.20;;;;;;;4.23;70.53;102032.25;5031137;28;20057;-43
2023/12/03 06:09:05;;;;;;;67.72;24.42;;;;;;;4.29;69.37;102020.56;5031077;28;20045;-49
2023/12/03 06:11:32;;;;;;;57.35;23.48;;;;;;;4.30;69.75;102026.63;5031113;28;20520;-50
2023/12/03 06:13:58;;;;;;;58.83;23.90;;;;;;;4.25;69.28;102028.94;5031402;28;20399;-46
2023/12/03 06:16:23;;;;;;;64.18;23.77;;;;;;;4.30;68.94;102024.94;5030681;28;20041;-47
2023/12/03 06:18:49;;;;;;;65.93;24.67;;;;;;;4.19;69.18;102026.03;5031075;28;20133;-45
2023/12/03 06:21:14;;;;;;;63.85;23.23;;;;;;;4.25;69.68;102040.97;5030753;28;20463;-45
2023/12/03 06:23:40;;;;;;;64.50;23.20;;;;;;;4.26;69.30;102045.34;5031760;28;20033;-45
2023/12/03 06:26:05;;;;;;;64.28;23.25;;;;;;;4.27;69.23;102040.22;5031365;28;20523;-52
2023/12/03 06:28:31;;;;;;;63.70;24.45;;;;;;;4.18;69.79;102039.72;5031022;28;20044;-45
2023/12/03 06:30:57;;;;;;;67.50;24.58;;;;;;;4.23;69.64;102034.81;5030861;28;20038;-45
2023/12/03 06:33:22;;;;;;;61.47;23.98;;;;;;;4.09;69.77;102027.16;5030518;28;20557;-47
2023/12/03 06:35:47;;;;;;;66.10;23.80;;;;;;;4.23;69.53;102030.53;5030893;28;20037;-50
2023/12/03 06:38:13;;;;;;;66.82;24.98;;;;;;;4.16;69.95;102031.00;5030262;28;20473;-47
2023/12/03 06:40:39;;;;;;;63.28;24.35;;;;;;;4.17;69.31;102018.97;5030473;28;20033;-45
2023/12/03 06:43:04;;;;;;;62.20;24.00;;;;;;;4.21;69.48;102019.22;5030609;28;20125;-46
2023/12/03 06:45:30;;;;;;;63.58;23.75;;;;;;;4.18;69.23;102019.06;5030033;28;20128;-49
2023/12/03 06:47:55;;;;;;;60.47;22.90;;;;;;;4.28;69.16;102016.19;5030705;28;20120;-47
2023/12/03 06:50:20;;;;;;;65.18;25.90;;;;;;;4.26;68.89;102010.09;5029748;28;20494;-47
2023/12/03 06:52:46;;;;;;;68.78;24.80;;;;;;;4.24;69.25;102008.22;5030124;28;20378;-45
2023/12/03 06:55:12;;;;;;;64.45;23.98;;;;;;;4.23;68.92;102019.31;5030259;28;20088;-47
2023/12/03 06:57:37;;;;;;;69.07;24.67;;;;;;;4.21;69.48;102020.97;5029700;28;20033;-46
2023/12/03 07:00:04;;;;;;;69.10;25.00;;;;;;;4.21;69.51;102020.97;5030498;28;20042;-48
2023/12/03 07:02:29;;;;;;;68.75;24.25;;;;;;;4.20;69.22;102014.91;5029736;28;20439;-47
2023/12/03 07:04:54;;;;;;;63.22;24.73;;;;;;;4.24;69.20;102021.13;5030485;28;20045;-47
2023/12/03 07:07:20;;;;;;;64.32;25.20;;;;;;;4.24;68.55;102021.13;5030063;28;20657;-44
2023/12/03 07:09:47;;;;;;;66.93;25.23;;;;;;;4.21;69.07;102023.53;5030216;28;20057;-44
2023/12/03 07:12:13;;;;;;;65.55;25.48;;;;;;;4.24;69.12;102018.53;5030717;28;20068;-47
2023/12/03 07:14:38;;;;;;;67.22;25.05;;;;;;;4.12;69.58;102030.75;5030820;28;20053;-45
2023/12/03 07:17:03;;;;;;;66.95;25.58;;;;;;;4.15;69.65;102034.38;5031854;28;20052;-46
2023/12/03 07:19:28;;;;;;;69.07;24.58;;;;;;;4.08;69.58;102033.16;5032007;28;20041;-47
2023/12/03 07:21:54;;;;;;;68.88;24.80;;;;;;;4.17;69.44;102030.19;5030977;28;20408;-44
2023/12/03 07:24:21;;;;;;;61.25;25.63;;;;;;;4.23;68.97;102025.38;5030095;28;20183;-48
2023/12/03 07:26:46;;;;;;;75.60;25.98;;;;;;;4.25;69.11;102033.22;5030542;28;20063;-43
2023/12/03 07:29:12;;;;;;;65.43;25.02;;;;;;;4.24;68.86;102039.19;5030950;28;20535;-46
2023/12/03 07:31:37;;;;;;;63.70;24.65;;;;;;;4.21;68.91;102036.44;5030401;28;20579;-50
2023/12/03 07:34:02;;;;;;;70.47;24.65;;;;;;;4.21;69.21;102033.88;5031588;28;20034;-49
2023/12/03 07:36:28;;;;;;;66.65;25.48;;;;;;;3.99;70.16;102035.19;5031157;28;20064;-47
2023/12/03 07:38:53;;;;;;;67.28;24.52;;;;;;;4.09;69.95;102029.75;5030328;28;20029;-46
2023/12/03 07:41:18;;;;;;;70.18;25.55;;;;;;;4.13;69.25;102036.00;5029603;28;20053;-45
2023/12/03 07:43:44;;;;;;;72.20;25.42;;;;;;;4.30;68.94;102031.78;5029186;28;20124;-45
2023/12/03 07:46:16;;;;;;;65.93;24.33;;;;;;;4.23;68.77;102037.41;5029550;28;20725;-44
2023/12/03 07:48:41;;;;;;;66.78;25.27;;;;;;;4.32;69.06;102045.69;5029559;28;20042;-44
2023/12/03 07:51:10;;;;;;;70.03;25.38;;;;;;;4.24;69.59;102037.50;5028502;28;20034;-44
2023/12/03 07:53:35;;;;;;;65.88;24.42;;;;;;;4.30;69.71;102047.28;5029397;28;20057;-45
2023/12/03 07:56:01;;;;;;;70.65;24.70;;;;;;;4.36;69.56;102048.53;5029731;28;20080;-48
2023/12/03 07:58:26;;;;;;;71.55;26.77;;;;;;;4.37;69.42;102047.72;5029257;28;20033;-46
2023/12/03 08:00:52;;;;;;;64.13;24.15;;;;;;;4.38;69.48;102056.34;5030310;28;20044;-45
2023/12/03 08:03:17;;;;;;;65.80;24.90;;;;;;;4.31;69.67;102047.38;5030426;28;20087;-50
2023/12/03 08:05:42;;;;;;;74.20;25.85;;;;;;;4.44;69.91;102054.13;5030599;28;20099;-45
2023/12/03 08:08:08;;;;;;;73.32;26.00;;;;;;;4.20;70.44;102051.03;5029892;28;20076;-48
2023/12/03 08:10:33;;;;;;;68.13;25.67;;;;;;;4.25;69.96;102051.28;5028683;28;20093;-45
2023/12/03 08:12:58;;;;;;;71.05;25.50;;;;;;;4.44;69.36;102055.03;5029610;28;20049;-45
2023/12/03 08:15:23;;;;;;;71.78;25.77;;;;;;;4.42;69.30;102055.72;5028642;28;20037;-49
2023/12/03 08:17:49;;;;;;;69.28;25.23;;;;;;;4.42;69.28;102055.72;5029839;28;20550;-48
2023/12/03 08:20:14;;;;;;;72.13;24.15;;;;;;;4.52;69.32;102063.16;5028501;28;20033;-50
2023/12/03 08:22:40;;;;;;;68.90;24.58;;;;;;;4.56;69.31;102059.09;5029162;28;20044;-46
2023/12/03 08:25:06;;;;;;;69.22;24.70;;;;;;;4.52;69.31;102057.13;5029082;28;20742;-45
2023/12/03 08:27:32;;;;;;;62.58;23.38;;;;;;;4.50;69.51;102051.88;5028791;28;20033;-45
2023/12/03 08:29:57;;;;;;;60.30;24.00;;;;;;;4.46;69.15;102053.38;5029064;28;20041;-44
2023/12/03 08:32:22;;;;;;;64.43;24.10;;;;;;;4.57;69.42;102041.09;5028218;28;20462;-46
2023/12/03 08:34:48;;;;;;;71.43;24.73;;;;;;;4.65;69.21;102049.25;5028932;28;20069;-44
2023/12/03 08:37:13;;;;;;;65.55;23.48;;;;;;;4.64;69.58;102045.78;5029184;28;20124;-46
2023/12/03 08:39:38;;;;;;;66.13;24.05;;;;;;;4.61;69.91;102045.63;5028644;28;20120;-51
2023/12/03 08:42:04;;;;;;;64.15;23.63;;;;;;;4.72;69.59;102049.69;5029377;28;20037;-48
2023/12/03 08:44:32;;;;;;;62.20;24.67;;;;;;;4.81;69.25;102042.47;5028807;28;20045;-46
2023/12/03 08:46:57;;;;;;;62.92;22.77;;;;;;;4.82;69.32;102041.63;5029217;28;20058;-49
2023/12/03 08:49:22;;;;;;;66.80;22.80;;;;;;;4.84;69.21;102044.31;5028666;28;20068;-48
2023/12/03 08:51:48;;;;;;;61.90;22.88;;;;;;;4.95;69.48;102043.19;5029125;28;20038;-44
2023/12/03 08:54:13;;;;;;;64.72;24.02;;;;;;;5.02;68.77;102034.06;5030457;28;20033;-48
2023/12/03 08:56:39;;;;;;;58.33;22.42;;;;;;;5.03;69.59;102044.50;5032869;28;20030;-45
2023/12/03 08:59:04;;;;;;;62.78;22.52;;;;;;;5.06;69.05;102041.22;5033319;28;20033;-47
2023/12/03 09:01:30;;;;;;;61.03;22.88;;;;;;;5.09;68.37;102044.84;5032944;28;20564;-47
2023/12/03 09:03:55;;;;;;;60.90;23.05;;;;;;;4.93;68.64;102043.94;5032995;28;20052;-44
2023/12/03 09:06:20;;;;;;;51.45;20.90;;;;;;;4.96;69.00;102047.56;5032887;28;20037;-45
2023/12/03 09:08:46;;;;;;;57.75;22.70;;;;;;;5.16;69.23;102041.78;5033116;28;20376;-46
2023/12/03 09:11:11;;;;;;;61.08;22.42;;;;;;;5.44;68.78;102040.63;5033107;28;20095;-45
2023/12/03 09:13:36;;;;;;;57.13;21.90;;;;;;;5.49;68.77;102023.69;5032610;28;20483;-45
2023/12/03 09:16:02;;;;;;;57.08;22.85;;;;;;;5.40;68.79;102028.38;5032870;28;20042;-49
2023/12/03 09:18:27;;;;;;;61.03;22.40;;;;;;;5.41;67.93;102027.56;5032815;28;20511;-45
2023/12/03 09:20:53;;;;;;;57.30;21.70;;;;;;;5.55;67.84;102026.59;5032143;28;20499;-46
2023/12/03 09:23:18;;;;;;;57.38;21.80;;;;;;;5.56;68.06;102025.75;5032127;28;20056;-44
2023/12/03 09:25:43;;;;;;;59.13;21.42;;;;;;;5.47;67.44;102028.78;5032798;28;20040;-45
2023/12/03 09:28:10;;;;;;;54.40;21.08;;;;;;;5.60;67.58;102019.97;5032548;28;20043;-46
2023/12/03 09:30:36;;;;;;;54.15;21.65;;;;;;;5.63;67.33;102018.41;5032182;28;20033;-47
2023/12/03 09:33:01;;;;;;;56.03;20.70;;;;;;;5.55;66.83;102026.59;5032480;28;20495;-48
2023/12/03 09:35:29;;;;;;;54.58;21.38;;;;;;;5.50;66.44;102031.50;5031814;28;20120;-46
2023/12/03 09:37:55;;;;;;;52.35;20.42;;;;;;;5.30;66.39;102037.34;5032481;28;20029;-45
2023/12/03 09:40:21;;;;;;;51.00;19.50;;;;;;;5.55;66.52;102040.38;5031456;28;20037;-45
2023/12/03 09:42:48;;;;;;;51.45;20.70;;;;;;;5.46;66.22;102031.28;5032105;28;20033;-46
2023/12/03 09:45:15;;;;;;;44.35;19.25;;;;;;;5.63;66.05;102031.34;5032511;28;20108;-44
2023/12/03 09:47:49;;;;;;;48.63;19.38;;;;;;;5.26;66.00;102036.28;5031260;28;20053;-46
2023/12/03 09:50:14;;;;;;;49.45;19.52;;;;;;;5.30;66.06;102034.78;5031146;28;20041;-46
2023/12/03 09:52:42;;;;;;;51.25;20.40;;;;;;;5.60;65.60;102040.66;5031936;28;20381;-49
2023/12/03 09:55:08;;;;;;;45.17;19.33;;;;;;;5.68;64.43;102036.75;5031948;28;20117;-49
2023/12/03 09:57:34;;;;;;;51.17;19.50;;;;;;;5.47;64.83;102035.66;5031279;28;20219;-46
2023/12/03 10:00:03;;;;;;;47.70;19.17;;;;;;;5.80;63.67;102032.19;5031407;28;20044;-49
2023/12/03 10:02:31;;;;;;;43.15;18.38;;;;;;;5.70;64.01;102027.38;5031446;28;20065;-47
2023/12/03 10:04:57;;;;;;;48.30;19.63;;;;;;;5.91;63.97;102025.03;5031263;28;20037;-45
2023/12/03 10:07:26;;;;;;;43.20;17.70;;;;;;;5.79;63.15;102029.56;5030525;28;20436;-48
2023/12/03 10:09:54;;;;;;;43.20;17.75;;;;;;;6.02;63.89;102029.03;5031618;28;20124;-48
2023/12/03 10:12:24;;;;;;;41.08;17.90;;;;;;;6.02;63.25;102029.94;5031397;28;20071;-45
2023/12/03 10:14:52;;;;;;;40.20;17.38;;;;;;;6.11;62.79;102024.31;5031312;28;20403;-46
2023/12/03 10:17:19;;;;;;;42.72;16.73;;;;;;;6.08;63.81;102030.25;5030920;28;20045;-46
2023/12/03 10:19:45;;;;;;;37.00;16.30;;;;;;;6.11;61.82;102016.53;5031486;28;20045;-48
2023/12/03 10:22:12;;;;;;;37.50;16.08;;;;;;;6.07;61.50;102017.22;5031575;28;20025;-44
2023/12/03 10:24:48;;;;;;;37.50;16.40;;;;;;;6.13;61.96;102022.69;5031106;28;20120;-47
2023/12/03 10:27:13;;;;;;;35.28;15.18;;;;;;;6.35;62.62;102016.84;5033118;28;20114;-47
2023/12/03 10:29:39;;;;;;;36.15;15.52;;;;;;;6.18;61.55;102012.56;5031968;28;20093;-45
2023/12/03 10:32:07;;;;;;;36.03;15.57;;;;;;;6.22;62.56;102009.31;5032515;28;20041;-49
2023/12/03 10:34:33;;;;;;;34.75;15.05;;;;;;;6.13;61.33;102001.09;5031582;28;20029;-45
2023/12/03 10:37:00;;;;;;;35.38;14.85;;;;;;;6.18;60.90;101992.72;5031957;28;20116;-45
2023/12/03 10:39:26;;;;;;;32.25;14.55;;;;;;;6.23;61.35;101999.00;5031122;28;20060;-48
2023/12/03 10:41:51;;;;;;;32.53;14.43;;;;;;;6.26;59.66;102001.78;5032547;28;20555;-45
2023/12/03 10:44:18;;;;;;;33.40;13.77;;;;;;;6.07;60.91;101994.81;5030548;28;20037;-45
2023/12/03 10:46:44;;;;;;;30.70;13.10;;;;;;;6.09;58.26;101987.13;5030502;28;20072;-47
2023/12/03 10:49:10;;;;;;;30.75;13.18;;;;;;;5.99;59.06;101988.34;5030184;28;20046;-46
2023/12/03 10:51:40;;;;;;;30.10;13.75;;;;;;;6.23;59.70;101983.47;5029977;28;20036;-46
2023/12/03 10:54:05;;;;;;;31.15;13.23;;;;;;;6.06;57.74;101985.25;5030609;28;20044;-46
2023/12/03 10:56:32;;;;;;;29.00;13.45;;;;;;;6.35;58.37;101984.06;5029918;28;20033;-46
2023/12/03 10:59:02;;;;;;;32.10;13.05;;;;;;;6.37;58.91;101976.38;5030518;28;20063;-44
2023/12/03 11:01:30;;;;;;;30.17;12.90;;;;;;;6.35;59.49;101970.22;5030015;28;20030;-46
2023/12/03 11:04:01;;;;;;;29.17;12.43;;;;;;;6.37;59.18;101969.50;5030363;28;20048;-49
2023/12/03 11:06:28;;;;;;;30.98;13.13;;;;;;;6.48;58.14;101963.13;5030000;28;20467;-50
2023/12/03 11:08:55;;;;;;;33.08;12.45;;;;;;;6.38;58.69;101967.78;5030651;28;20384;-46
2023/12/03 11:11:21;;;;;;;29.40;13.10;;;;;;;6.54;57.10;101967.69;5030267;28;20034;-45